sensor_id;sensor_type;location;lat;lon;timestamp;pressure;altitude;pressure_sealevel;temperature;humidity
52511;BME280;63918;51.700;17.998;2022-12-19T00:01:18;101948.06;;;-9.56;100.00
52511;BME280;63918;51.700;17.998;2022-12-19T00:03:49;101937.59;;;-9.54;100.00
52511;BME280;63918;51.700;17.998;2022-12-19T00:06:18;101931.87;;;-9.55;100.00
52511;BME280;63918;51.700;17.998;2022-12-19T00:08:47;101930.59;;;-9.52;100.00
52511;BME280;63918;51.700;17.998;2022-12-19T00:11:16;101924.27;;;-9.51;100.00
52511;BME280;63918;51.700;17.998;2022-12-19T00:13:43;101923.37;;;-9.49;100.00
52511;BME280;63918;51.700;17.998;2022-12-19T00:16:12;101918.92;;;-9.45;100.00
52511;BME280;63918;51.700;17.998;2022-12-19T00:18:40;101913.25;;;-9.42;100.00
52511;BME280;63918;51.700;17.998;2022-12-19T00:21:10;101905.35;;;-9.39;100.00
52511;BME280;63918;51.700;17.998;2022-12-19T00:23:37;101897.48;;;-9.40;100.00
52511;BME280;63918;51.700;17.998;2022-12-19T00:26:09;101909.94;;;-9.35;100.00
52511;BME280;63918;51.700;17.998;2022-12-19T00:28:35;101905.63;;;-9.38;100.00
52511;BME280;63918;51.700;17.998;2022-12-19T00:31:03;101893.54;;;-9.44;100.00
52511;BME280;63918;51.700;17.998;2022-12-19T00:33:29;101891.73;;;-9.40;100.00
52511;BME280;63918;51.700;17.998;2022-12-19T00:35:57;101881.65;;;-9.37;100.00
52511;BME280;63918;51.700;17.998;2022-12-19T00:38:24;101883.17;;;-9.33;100.00
52511;BME280;63918;51.700;17.998;2022-12-19T00:40:51;101886.37;;;-9.34;100.00
52511;BME280;63918;51.700;17.998;2022-12-19T00:43:17;101890.72;;;-9.31;100.00
52511;BME280;63918;51.700;17.998;2022-12-19T00:45:44;101886.02;;;-9.37;100.00
52511;BME280;63918;51.700;17.998;2022-12-19T00:48:10;101877.41;;;-9.34;100.00
52511;BME280;63918;51.700;17.998;2022-12-19T00:50:37;101882.41;;;-9.33;100.00
52511;BME280;63918;51.700;17.998;2022-12-19T00:53:03;101876.16;;;-9.29;100.00
52511;BME280;63918;51.700;17.998;2022-12-19T00:55:29;101874.23;;;-9.29;100.00
52511;BME280;63918;51.700;17.998;2022-12-19T00:57:56;101873.77;;;-9.27;100.00
52511;BME280;63918;51.700;17.998;2022-12-19T01:00:22;101867.42;;;-9.27;100.00
52511;BME280;63918;51.700;17.998;2022-12-19T01:02:49;101861.28;;;-9.24;100.00
52511;BME280;63918;51.700;17.998;2022-12-19T01:05:15;101860.98;;;-9.27;100.00
52511;BME280;63918;51.700;17.998;2022-12-19T01:07:42;101858.97;;;-9.31;100.00
52511;BME280;63918;51.700;17.998;2022-12-19T01:10:09;101855.24;;;-9.31;100.00
52511;BME280;63918;51.700;17.998;2022-12-19T01:12:35;101855.80;;;-9.31;100.00
52511;BME280;63918;51.700;17.998;2022-12-19T01:15:16;101853.55;;;-9.24;100.00
52511;BME280;63918;51.700;17.998;2022-12-19T01:17:43;101848.30;;;-9.24;100.00
52511;BME280;63918;51.700;17.998;2022-12-19T01:20:11;101839.63;;;-9.23;100.00
52511;BME280;63918;51.700;17.998;2022-12-19T01:22:38;101828.97;;;-9.22;100.00
52511;BME280;63918;51.700;17.998;2022-12-19T01:25:05;101818.52;;;-9.23;100.00
52511;BME280;63918;51.700;17.998;2022-12-19T01:27:31;101817.55;;;-9.24;100.00
52511;BME280;63918;51.700;17.998;2022-12-19T01:29:58;101819.19;;;-9.20;100.00
52511;BME280;63918;51.700;17.998;2022-12-19T01:32:24;101812.05;;;-9.16;100.00
52511;BME280;63918;51.700;17.998;2022-12-19T01:34:51;101813.49;;;-9.14;100.00
52511;BME280;63918;51.700;17.998;2022-12-19T01:37:18;101814.53;;;-9.18;100.00
52511;BME280;63918;51.700;17.998;2022-12-19T01:39:45;101810.42;;;-9.17;100.00
52511;BME280;63918;51.700;17.998;2022-12-19T01:42:14;101813.27;;;-9.16;100.00
52511;BME280;63918;51.700;17.998;2022-12-19T01:48:06;101809.23;;;-9.11;100.00
52511;BME280;63918;51.700;17.998;2022-12-19T01:50:40;101812.09;;;-9.07;100.00
52511;BME280;63918;51.700;17.998;2022-12-19T01:53:08;101810.89;;;-9.10;100.00
52511;BME280;63918;51.700;17.998;2022-12-19T01:55:38;101798.54;;;-9.04;100.00
52511;BME280;63918;51.700;17.998;2022-12-19T01:58:07;101799.39;;;-9.04;100.00
52511;BME280;63918;51.700;17.998;2022-12-19T02:00:34;101791.04;;;-9.05;100.00
52511;BME280;63918;51.700;17.998;2022-12-19T02:03:09;101790.95;;;-9.04;100.00
52511;BME280;63918;51.700;17.998;2022-12-19T02:05:37;101789.79;;;-9.02;100.00
52511;BME280;63918;51.700;17.998;2022-12-19T02:08:05;101786.46;;;-9.00;100.00
52511;BME280;63918;51.700;17.998;2022-12-19T02:10:32;101781.91;;;-9.00;100.00
52511;BME280;63918;51.700;17.998;2022-12-19T02:12:58;101772.27;;;-8.98;100.00
52511;BME280;63918;51.700;17.998;2022-12-19T02:15:28;101772.88;;;-8.93;100.00
52511;BME280;63918;51.700;17.998;2022-12-19T02:18:13;101771.02;;;-8.91;100.00
52511;BME280;63918;51.700;17.998;2022-12-19T02:31:47;101745.90;;;-8.84;100.00
52511;BME280;63918;51.700;17.998;2022-12-19T02:34:21;101740.94;;;-8.81;100.00
52511;BME280;63918;51.700;17.998;2022-12-19T02:36:59;101740.95;;;-8.79;100.00
52511;BME280;63918;51.700;17.998;2022-12-19T02:39:35;101742.77;;;-8.78;100.00
52511;BME280;63918;51.700;17.998;2022-12-19T02:42:05;101746.09;;;-8.76;100.00
52511;BME280;63918;51.700;17.998;2022-12-19T02:44:37;101745.29;;;-8.74;100.00
52511;BME280;63918;51.700;17.998;2022-12-19T02:47:06;101743.70;;;-8.69;100.00
52511;BME280;63918;51.700;17.998;2022-12-19T02:49:35;101737.55;;;-8.63;100.00
52511;BME280;63918;51.700;17.998;2022-12-19T02:54:46;101739.34;;;-8.57;100.00
52511;BME280;63918;51.700;17.998;2022-12-19T02:57:44;101732.84;;;-8.54;100.00
52511;BME280;63918;51.700;17.998;2022-12-19T03:00:19;101723.88;;;-8.52;100.00
52511;BME280;63918;51.700;17.998;2022-12-19T03:05:39;101728.81;;;-8.48;100.00
52511;BME280;63918;51.700;17.998;2022-12-19T03:08:22;101726.46;;;-8.47;100.00
52511;BME280;63918;51.700;17.998;2022-12-19T03:13:29;101725.83;;;-8.37;100.00
52511;BME280;63918;51.700;17.998;2022-12-19T03:15:59;101718.13;;;-8.35;100.00
52511;BME280;63918;51.700;17.998;2022-12-19T03:18:27;101713.91;;;-8.33;100.00
52511;BME280;63918;51.700;17.998;2022-12-19T03:21:03;101708.44;;;-8.35;100.00
52511;BME280;63918;51.700;17.998;2022-12-19T03:23:33;101701.78;;;-8.33;100.00
52511;BME280;63918;51.700;17.998;2022-12-19T03:26:03;101698.92;;;-8.37;100.00
52511;BME280;63918;51.700;17.998;2022-12-19T03:29:12;101685.12;;;-8.38;100.00
52511;BME280;63918;51.700;17.998;2022-12-19T03:31:41;101682.36;;;-8.38;100.00
52511;BME280;63918;51.700;17.998;2022-12-19T03:34:17;101680.04;;;-8.40;100.00
52511;BME280;63918;51.700;17.998;2022-12-19T03:36:48;101678.45;;;-8.42;100.00
52511;BME280;63918;51.700;17.998;2022-12-19T03:39:20;101672.59;;;-8.39;100.00
52511;BME280;63918;51.700;17.998;2022-12-19T03:41:48;101673.95;;;-8.36;100.00
52511;BME280;63918;51.700;17.998;2022-12-19T03:44:38;101665.70;;;-8.32;100.00
52511;BME280;63918;51.700;17.998;2022-12-19T03:47:14;101661.48;;;-8.25;100.00
52511;BME280;63918;51.700;17.998;2022-12-19T03:49:43;101660.25;;;-8.21;100.00
52511;BME280;63918;51.700;17.998;2022-12-19T03:54:50;101654.86;;;-8.11;100.00
52511;BME280;63918;51.700;17.998;2022-12-19T03:57:24;101657.65;;;-8.05;100.00
52511;BME280;63918;51.700;17.998;2022-12-19T04:00:06;101663.02;;;-8.00;100.00
52511;BME280;63918;51.700;17.998;2022-12-19T04:02:35;101659.86;;;-7.97;100.00
52511;BME280;63918;51.700;17.998;2022-12-19T04:05:06;101658.10;;;-8.00;100.00
52511;BME280;63918;51.700;17.998;2022-12-19T04:07:35;101650.54;;;-7.99;100.00
52511;BME280;63918;51.700;17.998;2022-12-19T04:10:05;101649.55;;;-7.98;100.00
52511;BME280;63918;51.700;17.998;2022-12-19T04:12:36;101648.33;;;-7.98;100.00
52511;BME280;63918;51.700;17.998;2022-12-19T04:15:04;101654.41;;;-8.02;100.00
52511;BME280;63918;51.700;17.998;2022-12-19T04:17:41;101654.09;;;-8.04;100.00
52511;BME280;63918;51.700;17.998;2022-12-19T04:20:13;101647.44;;;-8.05;100.00
52511;BME280;63918;51.700;17.998;2022-12-19T04:22:51;101646.58;;;-8.05;100.00
52511;BME280;63918;51.700;17.998;2022-12-19T04:25:28;101654.35;;;-8.05;100.00
52511;BME280;63918;51.700;17.998;2022-12-19T04:28:00;101663.09;;;-7.98;100.00
52511;BME280;63918;51.700;17.998;2022-12-19T04:30:28;101660.84;;;-7.97;100.00
52511;BME280;63918;51.700;17.998;2022-12-19T04:32:55;101659.52;;;-7.98;100.00
52511;BME280;63918;51.700;17.998;2022-12-19T04:35:22;101657.56;;;-7.99;100.00
52511;BME280;63918;51.700;17.998;2022-12-19T04:37:48;101654.41;;;-8.02;100.00
52511;BME280;63918;51.700;17.998;2022-12-19T04:40:15;101649.33;;;-7.96;100.00
52511;BME280;63918;51.700;17.998;2022-12-19T04:42:41;101645.05;;;-7.93;100.00
52511;BME280;63918;51.700;17.998;2022-12-19T04:45:08;101636.96;;;-7.95;100.00
52511;BME280;63918;51.700;17.998;2022-12-19T04:47:35;101630.46;;;-7.91;100.00
52511;BME280;63918;51.700;17.998;2022-12-19T04:50:02;101628.42;;;-7.92;100.00
52511;BME280;63918;51.700;17.998;2022-12-19T04:52:28;101624.39;;;-7.87;100.00
52511;BME280;63918;51.700;17.998;2022-12-19T04:54:55;101619.25;;;-7.85;100.00
52511;BME280;63918;51.700;17.998;2022-12-19T04:57:21;101617.02;;;-7.86;100.00
52511;BME280;63918;51.700;17.998;2022-12-19T04:59:48;101615.50;;;-7.84;100.00
52511;BME280;63918;51.700;17.998;2022-12-19T05:02:14;101617.10;;;-7.78;100.00
52511;BME280;63918;51.700;17.998;2022-12-19T05:04:41;101619.25;;;-7.78;100.00
52511;BME280;63918;51.700;17.998;2022-12-19T05:07:07;101611.54;;;-7.85;100.00
52511;BME280;63918;51.700;17.998;2022-12-19T05:09:34;101607.01;;;-7.86;100.00
52511;BME280;63918;51.700;17.998;2022-12-19T05:12:00;101600.75;;;-7.82;100.00
52511;BME280;63918;51.700;17.998;2022-12-19T05:14:27;101597.24;;;-7.76;100.00
52511;BME280;63918;51.700;17.998;2022-12-19T05:16:53;101591.03;;;-7.76;100.00
52511;BME280;63918;51.700;17.998;2022-12-19T05:19:20;101589.09;;;-7.75;100.00
52511;BME280;63918;51.700;17.998;2022-12-19T05:21:46;101596.98;;;-7.79;100.00
52511;BME280;63918;51.700;17.998;2022-12-19T05:24:12;101597.41;;;-7.82;100.00
52511;BME280;63918;51.700;17.998;2022-12-19T05:26:39;101594.13;;;-7.79;100.00
52511;BME280;63918;51.700;17.998;2022-12-19T05:29:06;101588.64;;;-7.80;100.00
52511;BME280;63918;51.700;17.998;2022-12-19T05:31:33;101581.24;;;-7.80;100.00
52511;BME280;63918;51.700;17.998;2022-12-19T05:34:00;101580.23;;;-7.81;100.00
52511;BME280;63918;51.700;17.998;2022-12-19T05:36:27;101581.06;;;-7.80;100.00
52511;BME280;63918;51.700;17.998;2022-12-19T05:38:53;101573.69;;;-7.82;100.00
52511;BME280;63918;51.700;17.998;2022-12-19T05:41:20;101577.87;;;-7.84;100.00
52511;BME280;63918;51.700;17.998;2022-12-19T05:43:51;101575.29;;;-7.83;100.00
52511;BME280;63918;51.700;17.998;2022-12-19T05:46:19;101570.50;;;-7.89;100.00
52511;BME280;63918;51.700;17.998;2022-12-19T05:48:46;101579.19;;;-7.87;100.00
52511;BME280;63918;51.700;17.998;2022-12-19T05:51:13;101581.69;;;-7.86;100.00
52511;BME280;63918;51.700;17.998;2022-12-19T05:53:40;101585.59;;;-7.88;100.00
52511;BME280;63918;51.700;17.998;2022-12-19T05:56:09;101586.77;;;-7.92;100.00
52511;BME280;63918;51.700;17.998;2022-12-19T05:58:37;101581.21;;;-7.94;100.00
52511;BME280;63918;51.700;17.998;2022-12-19T06:01:10;101572.17;;;-7.96;100.00
52511;BME280;63918;51.700;17.998;2022-12-19T06:03:38;101580.88;;;-7.97;100.00
52511;BME280;63918;51.700;17.998;2022-12-19T06:06:08;101576.12;;;-7.93;100.00
52511;BME280;63918;51.700;17.998;2022-12-19T06:08:35;101571.34;;;-7.96;100.00
52511;BME280;63918;51.700;17.998;2022-12-19T06:11:03;101569.88;;;-7.91;100.00
52511;BME280;63918;51.700;17.998;2022-12-19T06:13:30;101566.59;;;-7.92;100.00
52511;BME280;63918;51.700;17.998;2022-12-19T06:16:05;101573.30;;;-7.90;100.00
52511;BME280;63918;51.700;17.998;2022-12-19T06:18:32;101576.70;;;-7.91;100.00
52511;BME280;63918;51.700;17.998;2022-12-19T06:21:04;101573.21;;;-7.89;100.00
52511;BME280;63918;51.700;17.998;2022-12-19T06:23:33;101578.44;;;-7.89;100.00
52511;BME280;63918;51.700;17.998;2022-12-19T06:26:02;101578.98;;;-7.91;100.00
52511;BME280;63918;51.700;17.998;2022-12-19T06:28:30;101576.69;;;-7.91;100.00
52511;BME280;63918;51.700;17.998;2022-12-19T06:31:01;101567.40;;;-7.81;100.00
52511;BME280;63918;51.700;17.998;2022-12-19T06:33:30;101571.02;;;-7.78;100.00
52511;BME280;63918;51.700;17.998;2022-12-19T06:35:58;101574.16;;;-7.79;100.00
52511;BME280;63918;51.700;17.998;2022-12-19T06:38:26;101571.22;;;-7.86;100.00
52511;BME280;63918;51.700;17.998;2022-12-19T06:40:53;101569.95;;;-7.92;100.00
52511;BME280;63918;51.700;17.998;2022-12-19T06:43:39;101571.37;;;-7.96;100.00
52511;BME280;63918;51.700;17.998;2022-12-19T06:46:06;101569.83;;;-7.97;100.00
52511;BME280;63918;51.700;17.998;2022-12-19T06:48:32;101573.52;;;-7.99;100.00
52511;BME280;63918;51.700;17.998;2022-12-19T06:50:59;101566.10;;;-7.94;100.00
52511;BME280;63918;51.700;17.998;2022-12-19T06:53:26;101572.40;;;-7.92;100.00
52511;BME280;63918;51.700;17.998;2022-12-19T06:55:56;101569.96;;;-7.86;100.00
52511;BME280;63918;51.700;17.998;2022-12-19T06:58:24;101566.73;;;-7.89;100.00
52511;BME280;63918;51.700;17.998;2022-12-19T07:00:50;101572.27;;;-7.82;100.00
52511;BME280;63918;51.700;17.998;2022-12-19T07:03:21;101570.41;;;-7.71;100.00
52511;BME280;63918;51.700;17.998;2022-12-19T07:05:49;101570.32;;;-7.68;100.00
52511;BME280;63918;51.700;17.998;2022-12-19T07:08:16;101565.29;;;-7.64;100.00
52511;BME280;63918;51.700;17.998;2022-12-19T07:10:42;101558.91;;;-7.66;100.00
52511;BME280;63918;51.700;17.998;2022-12-19T07:13:09;101560.11;;;-7.66;100.00
52511;BME280;63918;51.700;17.998;2022-12-19T07:15:36;101561.55;;;-7.68;100.00
52511;BME280;63918;51.700;17.998;2022-12-19T07:18:04;101564.71;;;-7.62;100.00
52511;BME280;63918;51.700;17.998;2022-12-19T07:20:33;101558.80;;;-7.65;100.00
52511;BME280;63918;51.700;17.998;2022-12-19T07:23:03;101554.83;;;-7.55;100.00
52511;BME280;63918;51.700;17.998;2022-12-19T07:25:30;101555.09;;;-7.50;100.00
52511;BME280;63918;51.700;17.998;2022-12-19T07:27:57;101553.61;;;-7.35;100.00
52511;BME280;63918;51.700;17.998;2022-12-19T07:30:24;101545.55;;;-7.28;100.00
52511;BME280;63918;51.700;17.998;2022-12-19T07:32:50;101535.02;;;-7.14;100.00
52511;BME280;63918;51.700;17.998;2022-12-19T07:35:16;101521.12;;;-6.98;100.00
52511;BME280;63918;51.700;17.998;2022-12-19T07:37:43;101518.33;;;-6.88;100.00
52511;BME280;63918;51.700;17.998;2022-12-19T07:40:12;101516.63;;;-6.73;100.00
52511;BME280;63918;51.700;17.998;2022-12-19T07:42:39;101517.71;;;-6.48;100.00
52511;BME280;63918;51.700;17.998;2022-12-19T07:45:06;101506.42;;;-6.20;99.19
52511;BME280;63918;51.700;17.998;2022-12-19T07:47:32;101502.70;;;-5.76;96.49
52511;BME280;63918;51.700;17.998;2022-12-19T07:49:59;101505.66;;;-5.48;94.01
52511;BME280;63918;51.700;17.998;2022-12-19T07:52:26;101501.05;;;-5.28;92.85
52511;BME280;63918;51.700;17.998;2022-12-19T07:54:53;101494.69;;;-5.15;91.33
52511;BME280;63918;51.700;17.998;2022-12-19T07:57:19;101495.45;;;-5.05;90.47
52511;BME280;63918;51.700;17.998;2022-12-19T07:59:46;101493.79;;;-4.92;90.49
52511;BME280;63918;51.700;17.998;2022-12-19T08:02:12;101500.84;;;-4.95;91.27
52511;BME280;63918;51.700;17.998;2022-12-19T08:04:39;101505.17;;;-4.84;91.64
52511;BME280;63918;51.700;17.998;2022-12-19T08:07:06;101516.49;;;-4.67;91.77
52511;BME280;63918;51.700;17.998;2022-12-19T08:09:32;101514.77;;;-4.31;91.21
52511;BME280;63918;51.700;17.998;2022-12-19T08:11:59;101514.90;;;-4.18;89.98
52511;BME280;63918;51.700;17.998;2022-12-19T08:14:25;101508.41;;;-4.06;89.07
52511;BME280;63918;51.700;17.998;2022-12-19T08:16:52;101496.28;;;-3.64;88.18
52511;BME280;63918;51.700;17.998;2022-12-19T08:19:18;101492.87;;;-3.53;85.90
52511;BME280;63918;51.700;17.998;2022-12-19T08:21:45;101488.95;;;-3.21;84.41
52511;BME280;63918;51.700;17.998;2022-12-19T08:24:12;101487.96;;;-2.85;83.35
52511;BME280;63918;51.700;17.998;2022-12-19T08:26:38;101472.72;;;-3.05;84.05
52511;BME280;63918;51.700;17.998;2022-12-19T08:29:05;101470.45;;;-3.22;84.92
52511;BME280;63918;51.700;17.998;2022-12-19T08:31:31;101459.38;;;-3.17;86.05
52511;BME280;63918;51.700;17.998;2022-12-19T08:33:58;101455.67;;;-3.03;85.75
52511;BME280;63918;51.700;17.998;2022-12-19T08:36:25;101452.48;;;-2.88;85.70
52511;BME280;63918;51.700;17.998;2022-12-19T08:38:52;101462.06;;;-2.64;84.56
52511;BME280;63918;51.700;17.998;2022-12-19T08:41:19;101461.90;;;-2.59;84.18
52511;BME280;63918;51.700;17.998;2022-12-19T08:43:51;101457.88;;;-2.99;86.00
52511;BME280;63918;51.700;17.998;2022-12-19T08:46:19;101463.23;;;-2.99;87.08
52511;BME280;63918;51.700;17.998;2022-12-19T08:48:46;101462.46;;;-2.62;86.23
52511;BME280;63918;51.700;17.998;2022-12-19T08:51:13;101459.92;;;-2.81;86.21
52511;BME280;63918;51.700;17.998;2022-12-19T08:53:41;101453.23;;;-2.75;87.19
52511;BME280;63918;51.700;17.998;2022-12-19T08:56:13;101442.02;;;-2.80;87.72
52511;BME280;63918;51.700;17.998;2022-12-19T08:58:41;101433.80;;;-2.61;87.37
52511;BME280;63918;51.700;17.998;2022-12-19T09:01:10;101430.46;;;-2.48;86.65
52511;BME280;63918;51.700;17.998;2022-12-19T09:03:39;101428.42;;;-2.93;89.50
52511;BME280;63918;51.700;17.998;2022-12-19T09:06:07;101429.80;;;-3.01;90.14
52511;BME280;63918;51.700;17.998;2022-12-19T09:08:35;101423.25;;;-3.06;91.34
52511;BME280;63918;51.700;17.998;2022-12-19T09:11:28;101419.26;;;-3.17;91.83
52511;BME280;63918;51.700;17.998;2022-12-19T09:13:55;101418.20;;;-3.42;93.65
52511;BME280;63918;51.700;17.998;2022-12-19T09:16:24;101413.23;;;-3.31;94.38
52511;BME280;63918;51.700;17.998;2022-12-19T09:18:54;101409.97;;;-3.23;93.79
52511;BME280;63918;51.700;17.998;2022-12-19T09:21:23;101402.14;;;-3.29;94.40
52511;BME280;63918;51.700;17.998;2022-12-19T09:23:53;101406.75;;;-3.39;95.55
52511;BME280;63918;51.700;17.998;2022-12-19T09:26:22;101402.95;;;-3.35;96.40
52511;BME280;63918;51.700;17.998;2022-12-19T09:28:49;101399.40;;;-3.26;95.89
52511;BME280;63918;51.700;17.998;2022-12-19T09:31:18;101391.44;;;-3.31;96.19
52511;BME280;63918;51.700;17.998;2022-12-19T09:33:45;101391.63;;;-3.14;96.08
52511;BME280;63918;51.700;17.998;2022-12-19T09:36:15;101398.33;;;-2.92;95.20
52511;BME280;63918;51.700;17.998;2022-12-19T09:38:42;101399.16;;;-2.70;93.82
52511;BME280;63918;51.700;17.998;2022-12-19T09:41:33;101394.16;;;-2.37;92.46
52511;BME280;63918;51.700;17.998;2022-12-19T09:44:13;101391.63;;;-1.75;88.65
52511;BME280;63918;51.700;17.998;2022-12-19T09:46:53;101384.78;;;-1.19;85.71
52511;BME280;63918;51.700;17.998;2022-12-19T09:49:24;101372.06;;;-0.96;83.53
52511;BME280;63918;51.700;17.998;2022-12-19T09:52:09;101365.61;;;-0.73;82.80
52511;BME280;63918;51.700;17.998;2022-12-19T09:54:41;101361.64;;;-0.44;81.08
52511;BME280;63918;51.700;17.998;2022-12-19T09:57:17;101355.36;;;-0.28;79.81
52511;BME280;63918;51.700;17.998;2022-12-19T10:00:02;101349.54;;;-0.06;78.97
52511;BME280;63918;51.700;17.998;2022-12-19T10:02:43;101350.14;;;-0.09;78.37
52511;BME280;63918;51.700;17.998;2022-12-19T10:05:19;101342.61;;;0.12;77.77
52511;BME280;63918;51.700;17.998;2022-12-19T10:07:51;101336.94;;;0.21;77.40
52511;BME280;63918;51.700;17.998;2022-12-19T10:10:49;101326.16;;;-0.01;78.09
52511;BME280;63918;51.700;17.998;2022-12-19T10:14:15;101331.06;;;-0.08;78.60
52511;BME280;63918;51.700;17.998;2022-12-19T10:19:40;101312.83;;;-0.04;78.82
52511;BME280;63918;51.700;17.998;2022-12-19T10:25:24;101314.75;;;0.04;78.33
52511;BME280;63918;51.700;17.998;2022-12-19T10:31:47;101304.52;;;0.43;76.51
52511;BME280;63918;51.700;17.998;2022-12-19T10:34:23;101292.73;;;0.80;75.00
52511;BME280;63918;51.700;17.998;2022-12-19T10:36:53;101292.38;;;0.71;75.31
52511;BME280;63918;51.700;17.998;2022-12-19T10:39:39;101282.41;;;0.79;74.67
52511;BME280;63918;51.700;17.998;2022-12-19T10:42:30;101279.91;;;0.78;74.59
52511;BME280;63918;51.700;17.998;2022-12-19T10:45:03;101274.88;;;0.83;74.39
52511;BME280;63918;51.700;17.998;2022-12-19T10:47:34;101262.33;;;0.73;74.91
52511;BME280;63918;51.700;17.998;2022-12-19T10:50:00;101262.00;;;0.90;74.76
52511;BME280;63918;51.700;17.998;2022-12-19T10:55:44;101275.42;;;1.19;73.31
52511;BME280;63918;51.700;17.998;2022-12-19T10:58:22;101273.83;;;1.33;72.78
52511;BME280;63918;51.700;17.998;2022-12-19T11:01:00;101270.74;;;1.25;73.12
52511;BME280;63918;51.700;17.998;2022-12-19T11:03:28;101278.61;;;1.25;72.56
52511;BME280;63918;51.700;17.998;2022-12-19T11:05:56;101265.70;;;1.72;71.82
52511;BME280;63918;51.700;17.998;2022-12-19T11:08:28;101260.74;;;1.69;70.98
52511;BME280;63918;51.700;17.998;2022-12-19T11:16:03;101251.90;;;1.66;71.76
52511;BME280;63918;51.700;17.998;2022-12-19T11:18:39;101251.86;;;1.48;71.99
52511;BME280;63918;51.700;17.998;2022-12-19T11:21:18;101249.73;;;1.29;73.04
52511;BME280;63918;51.700;17.998;2022-12-19T11:24:00;101240.90;;;1.35;73.27
52511;BME280;63918;51.700;17.998;2022-12-19T11:26:43;101231.23;;;1.31;72.84
52511;BME280;63918;51.700;17.998;2022-12-19T11:32:01;101218.02;;;0.99;73.93
52511;BME280;63918;51.700;17.998;2022-12-19T11:34:31;101216.92;;;1.09;74.62
52511;BME280;63918;51.700;17.998;2022-12-19T11:37:27;101214.16;;;1.14;74.30
52511;BME280;63918;51.700;17.998;2022-12-19T11:40:19;101204.54;;;1.00;74.67
52511;BME280;63918;51.700;17.998;2022-12-19T11:42:52;101199.47;;;0.99;75.52
52511;BME280;63918;51.700;17.998;2022-12-19T11:45:33;101195.36;;;0.85;75.35
52511;BME280;63918;51.700;17.998;2022-12-19T11:48:15;101188.89;;;0.85;75.57
52511;BME280;63918;51.700;17.998;2022-12-19T11:50:55;101184.81;;;0.80;76.48
52511;BME280;63918;51.700;17.998;2022-12-19T11:53:35;101178.48;;;0.90;76.01
52511;BME280;63918;51.700;17.998;2022-12-19T11:56:16;101177.36;;;0.93;75.84
52511;BME280;63918;51.700;17.998;2022-12-19T11:58:50;101187.13;;;1.03;75.67
52511;BME280;63918;51.700;17.998;2022-12-19T12:07:08;101159.06;;;1.28;74.99
52511;BME280;63918;51.700;17.998;2022-12-19T12:09:53;101164.28;;;1.19;74.87
52511;BME280;63918;51.700;17.998;2022-12-19T12:18:18;101147.70;;;1.33;74.53
52511;BME280;63918;51.700;17.998;2022-12-19T12:21:20;101150.90;;;1.08;75.83
52511;BME280;63918;51.700;17.998;2022-12-19T12:27:22;101139.52;;;1.07;76.50
52511;BME280;63918;51.700;17.998;2022-12-19T12:30:03;101140.77;;;1.19;76.01
52511;BME280;63918;51.700;17.998;2022-12-19T12:38:44;101141.44;;;1.13;76.43
52511;BME280;63918;51.700;17.998;2022-12-19T12:41:23;101149.73;;;1.11;76.70
52511;BME280;63918;51.700;17.998;2022-12-19T12:44:14;101146.28;;;0.87;77.75
52511;BME280;63918;51.700;17.998;2022-12-19T12:46:47;101142.20;;;0.92;77.68
52511;BME280;63918;51.700;17.998;2022-12-19T12:49:37;101130.31;;;0.53;79.20
52511;BME280;63918;51.700;17.998;2022-12-19T12:52:08;101130.02;;;0.53;80.19
52511;BME280;63918;51.700;17.998;2022-12-19T12:54:38;101126.41;;;0.44;80.48
52511;BME280;63918;51.700;17.998;2022-12-19T12:57:17;101119.40;;;0.38;80.84
52511;BME280;63918;51.700;17.998;2022-12-19T12:59:45;101113.73;;;0.31;81.58
52511;BME280;63918;51.700;17.998;2022-12-19T13:02:16;101119.23;;;0.32;81.47
52511;BME280;63918;51.700;17.998;2022-12-19T13:04:59;101113.16;;;0.40;80.79
52511;BME280;63918;51.700;17.998;2022-12-19T13:10:34;101115.93;;;0.43;81.10
52511;BME280;63918;51.700;17.998;2022-12-19T13:13:07;101102.42;;;0.47;81.33
52511;BME280;63918;51.700;17.998;2022-12-19T13:15:37;101104.58;;;0.55;80.76
52511;BME280;63918;51.700;17.998;2022-12-19T13:20:57;101097.05;;;0.44;81.32
52511;BME280;63918;51.700;17.998;2022-12-19T13:26:07;101086.02;;;0.36;82.55
52511;BME280;63918;51.700;17.998;2022-12-19T13:28:44;101097.57;;;0.30;82.36
52511;BME280;63918;51.700;17.998;2022-12-19T13:31:13;101102.95;;;0.30;83.16
52511;BME280;63918;51.700;17.998;2022-12-19T13:34:08;101104.02;;;0.26;83.26
52511;BME280;63918;51.700;17.998;2022-12-19T13:36:48;101085.86;;;0.10;84.37
52511;BME280;63918;51.700;17.998;2022-12-19T13:39:40;101074.29;;;-0.12;85.66
52511;BME280;63918;51.700;17.998;2022-12-19T13:44:58;101062.41;;;-0.23;87.37
52511;BME280;63918;51.700;17.998;2022-12-19T13:47:32;101052.13;;;-0.25;87.94
52511;BME280;63918;51.700;17.998;2022-12-19T13:50:03;101043.97;;;-0.31;88.46
52511;BME280;63918;51.700;17.998;2022-12-19T13:52:31;101043.82;;;-0.25;88.40
52511;BME280;63918;51.700;17.998;2022-12-19T13:54:58;101037.73;;;-0.31;88.81
52511;BME280;63918;51.700;17.998;2022-12-19T13:57:27;101022.12;;;-0.31;88.77
52511;BME280;63918;51.700;17.998;2022-12-19T13:59:58;101032.38;;;-0.32;88.55
52511;BME280;63918;51.700;17.998;2022-12-19T14:02:31;101029.16;;;-0.33;88.83
52511;BME280;63918;51.700;17.998;2022-12-19T14:04:59;101027.91;;;-0.30;88.58
52511;BME280;63918;51.700;17.998;2022-12-19T14:07:34;101022.13;;;-0.34;88.65
52511;BME280;63918;51.700;17.998;2022-12-19T14:10:04;101019.55;;;-0.29;88.86
52511;BME280;63918;51.700;17.998;2022-12-19T14:12:38;101017.86;;;-0.33;88.91
52511;BME280;63918;51.700;17.998;2022-12-19T14:15:35;101023.86;;;-0.32;88.63